Time;durP1;ratioP1;P1;durP2;ratioP2;P2;SDS_P1;SDS_P2;PMS_P1;PMS_P2;Temp;Humidity;BMP_temperature;BMP_pressure;BME280_temperature;BME280_humidity;BME280_pressure;Samples;Min_cycle;Max_cycle;Signal;HPM_P1;HPM_P2
2021/03/23 00:00:45;;;;;;;11.43;3.12;;;;;;;;;;4089862;35;20173;-83
2021/03/23 00:03:35;;;;;;;8.63;2.80;;;;;;;;;;4092462;35;20066;-84
2021/03/23 00:06:04;;;;;;;7.28;2.70;;;;;;;;;;4084715;35;20200;-83
2021/03/23 00:08:50;;;;;;;10.60;2.60;;;;;;;;;;4091260;35;20053;-83
2021/03/23 00:11:24;;;;;;;8.45;2.55;;;;;;;;;;4090174;35;20094;-83
2021/03/23 00:13:54;;;;;;;6.53;2.50;;;;;;;;;;4092660;35;20084;-83
2021/03/23 00:16:24;;;;;;;12.20;2.70;;;;;;;;;;4087711;35;20058;-83
2021/03/23 00:18:53;;;;;;;7.70;2.90;;;;;;;;;;4088815;35;20116;-84
2021/03/23 00:21:22;;;;;;;10.82;3.10;;;;;;;;;;4096840;35;20085;-84
2021/03/23 00:23:51;;;;;;;7.50;2.92;;;;;;;;;;4091072;35;20360;-83
2021/03/23 00:26:20;;;;;;;8.90;2.55;;;;;;;;;;4092492;35;20049;-84
2021/03/23 00:28:49;;;;;;;10.20;2.75;;;;;;;;;;4098975;35;20541;-83
2021/03/23 00:31:18;;;;;;;10.73;2.92;;;;;;;;;;4095010;35;20061;-84
2021/03/23 00:33:57;;;;;;;9.98;2.62;;;;;;;;;;4092789;35;20074;-84
2021/03/23 00:36:46;;;;;;;8.82;2.53;;;;;;;;;;4082715;35;20079;-83
2021/03/23 00:39:14;;;;;;;6.53;2.60;;;;;;;;;;4094927;35;20382;-84
2021/03/23 00:41:43;;;;;;;9.15;2.95;;;;;;;;;;4092285;35;20092;-84
2021/03/23 00:44:13;;;;;;;9.93;3.10;;;;;;;;;;4084253;35;20147;-84
2021/03/23 00:46:41;;;;;;;11.48;2.92;;;;;;;;;;4084326;35;20080;-84
2021/03/23 00:49:10;;;;;;;8.98;2.78;;;;;;;;;;4096060;35;20098;-84
2021/03/23 00:51:39;;;;;;;11.15;2.80;;;;;;;;;;4084954;35;20408;-84
2021/03/23 00:54:08;;;;;;;12.07;2.83;;;;;;;;;;4085153;35;20101;-84
2021/03/23 00:56:36;;;;;;;8.60;2.55;;;;;;;;;;4082483;35;20100;-83
2021/03/23 00:59:04;;;;;;;10.85;2.35;;;;;;;;;;4085140;35;20228;-83
2021/03/23 01:01:32;;;;;;;8.00;2.80;;;;;;;;;;4085491;35;20125;-83
2021/03/23 01:04:21;;;;;;;5.93;2.50;;;;;;;;;;4089150;35;20074;-84
2021/03/23 01:06:49;;;;;;;10.40;2.50;;;;;;;;;;4084489;35;20982;-83
2021/03/23 01:09:17;;;;;;;7.22;2.70;;;;;;;;;;4083756;35;20112;-83
2021/03/23 01:11:46;;;;;;;7.18;2.60;;;;;;;;;;4088542;35;20479;-83
2021/03/23 01:14:14;;;;;;;10.38;2.78;;;;;;;;;;4088363;35;20108;-84
2021/03/23 01:16:42;;;;;;;7.35;2.67;;;;;;;;;;4086140;35;21358;-83
2021/03/23 01:19:10;;;;;;;11.68;2.55;;;;;;;;;;4084950;35;20081;-83
2021/03/23 01:21:39;;;;;;;8.32;2.70;;;;;;;;;;4085453;35;20105;-83
2021/03/23 01:24:07;;;;;;;7.70;2.70;;;;;;;;;;4085027;35;20100;-84
2021/03/23 01:26:36;;;;;;;7.15;2.58;;;;;;;;;;4084603;35;20054;-83
2021/03/23 01:29:04;;;;;;;10.40;2.90;;;;;;;;;;4089126;35;20119;-83
2021/03/23 01:31:32;;;;;;;9.75;2.42;;;;;;;;;;4085156;35;20042;-83
2021/03/23 01:34:01;;;;;;;10.07;2.60;;;;;;;;;;4092330;35;20081;-83
2021/03/23 01:36:29;;;;;;;7.28;2.70;;;;;;;;;;4078575;35;20104;-83
2021/03/23 01:38:57;;;;;;;7.87;2.40;;;;;;;;;;4085249;35;20121;-83
2021/03/23 01:41:27;;;;;;;8.35;2.70;;;;;;;;;;4086884;35;20086;-84
2021/03/23 01:43:55;;;;;;;8.32;2.83;;;;;;;;;;4085319;35;20351;-84
2021/03/23 01:46:38;;;;;;;7.47;2.67;;;;;;;;;;4089323;35;20057;-83
2021/03/23 01:49:12;;;;;;;10.25;2.47;;;;;;;;;;4095624;35;20061;-84
2021/03/23 01:51:42;;;;;;;8.85;2.87;;;;;;;;;;4089444;35;20058;-84
2021/03/23 01:54:25;;;;;;;8.40;2.60;;;;;;;;;;4086031;35;20132;-84
2021/03/23 01:56:54;;;;;;;7.90;2.67;;;;;;;;;;4079686;35;20093;-84
2021/03/23 01:59:24;;;;;;;8.32;2.62;;;;;;;;;;4086592;35;20092;-84
2021/03/23 02:01:53;;;;;;;11.20;2.72;;;;;;;;;;4093886;35;20141;-83
2021/03/23 02:04:23;;;;;;;6.10;2.45;;;;;;;;;;4091782;35;20317;-84
2021/03/23 02:06:51;;;;;;;9.13;2.37;;;;;;;;;;4082843;35;20058;-84
2021/03/23 02:09:22;;;;;;;7.10;2.40;;;;;;;;;;4081077;34;20058;-84
2021/03/23 02:12:01;;;;;;;8.23;2.85;;;;;;;;;;4090933;35;21365;-84
2021/03/23 02:14:30;;;;;;;9.77;2.80;;;;;;;;;;4079093;35;20421;-84
2021/03/23 02:17:14;;;;;;;11.07;2.70;;;;;;;;;;4083125;35;20519;-84
2021/03/23 02:19:43;;;;;;;8.70;2.45;;;;;;;;;;4089256;35;20133;-84
2021/03/23 02:22:15;;;;;;;7.53;2.50;;;;;;;;;;4085997;35;20272;-84
2021/03/23 02:24:44;;;;;;;8.85;2.72;;;;;;;;;;4080059;35;20104;-83
2021/03/23 02:27:11;;;;;;;6.47;2.37;;;;;;;;;;4086222;35;20528;-83
2021/03/23 02:29:39;;;;;;;6.93;2.25;;;;;;;;;;4087610;35;20065;-83
2021/03/23 02:32:08;;;;;;;8.32;2.60;;;;;;;;;;4078449;35;20959;-84
2021/03/23 02:34:37;;;;;;;11.80;2.60;;;;;;;;;;4077005;35;20160;-83
2021/03/23 02:37:05;;;;;;;10.00;2.72;;;;;;;;;;4084754;35;20105;-84
2021/03/23 02:39:34;;;;;;;10.45;2.70;;;;;;;;;;4086173;35;20565;-83
2021/03/23 02:42:02;;;;;;;9.35;2.70;;;;;;;;;;4086426;35;20106;-83
2021/03/23 02:44:45;;;;;;;5.03;2.22;;;;;;;;;;4082462;35;20532;-83
2021/03/23 02:47:18;;;;;;;8.63;2.60;;;;;;;;;;4077725;35;20070;-83
2021/03/23 02:49:47;;;;;;;9.05;2.72;;;;;;;;;;4091542;35;20448;-83
2021/03/23 02:52:15;;;;;;;10.80;2.90;;;;;;;;;;4086762;35;20136;-84
2021/03/23 02:54:43;;;;;;;10.90;2.65;;;;;;;;;;4080991;35;20090;-83
2021/03/23 02:57:11;;;;;;;10.88;3.00;;;;;;;;;;4088479;35;20443;-83
2021/03/23 02:59:39;;;;;;;8.38;2.17;;;;;;;;;;4085857;35;20122;-83
2021/03/23 03:02:07;;;;;;;9.35;3.35;;;;;;;;;;4080972;35;20058;-83
2021/03/23 03:04:38;;;;;;;6.97;2.42;;;;;;;;;;4081002;35;20357;-84
2021/03/23 03:07:07;;;;;;;7.12;2.50;;;;;;;;;;4085805;35;21104;-83
2021/03/23 03:09:35;;;;;;;8.18;2.80;;;;;;;;;;4084131;35;20740;-84
2021/03/23 03:16:22;;;;;;;6.80;2.20;;;;;;;;;;4080717;35;20121;-96
2021/03/23 03:19:47;;;;;;;4.45;2.10;;;;;;;;;;4089751;35;20085;-96
2021/03/23 03:22:57;;;;;;;8.38;2.40;;;;;;;;;;4076184;35;20074;-96
2021/03/23 03:25:58;;;;;;;7.28;2.15;;;;;;;;;;4078873;35;20068;-96
2021/03/23 03:29:02;;;;;;;9.95;2.70;;;;;;;;;;4088487;35;20159;-96
2021/03/23 03:31:45;;;;;;;10.05;2.40;;;;;;;;;;4083470;35;20074;-96
2021/03/23 03:34:35;;;;;;;8.93;2.58;;;;;;;;;;4082756;35;20089;-96
2021/03/23 03:40:43;;;;;;;5.22;2.08;;;;;;;;;;4076983;35;20062;-96
2021/03/23 03:43:41;;;;;;;6.90;2.17;;;;;;;;;;4093125;35;20054;-96
2021/03/23 03:46:43;;;;;;;6.53;2.40;;;;;;;;;;4091081;35;20046;-96
2021/03/23 03:49:39;;;;;;;7.18;2.30;;;;;;;;;;4099407;35;20491;-96
2021/03/23 03:52:40;;;;;;;5.32;2.30;;;;;;;;;;4084945;35;20061;-96
2021/03/23 03:55:37;;;;;;;5.80;2.12;;;;;;;;;;4097663;35;20151;-96
2021/03/23 04:05:02;;;;;;;14.45;2.78;;;;;;;;;;4078429;35;20093;-96
2021/03/23 04:08:01;;;;;;;10.32;3.15;;;;;;;;;;4087586;35;20120;-96
2021/03/23 04:10:36;;;;;;;6.55;2.42;;;;;;;;;;4090281;35;20055;-96
2021/03/23 04:13:11;;;;;;;15.77;3.62;;;;;;;;;;4088598;35;20093;-95
2021/03/23 04:16:10;;;;;;;10.40;3.30;;;;;;;;;;4090171;35;20090;-96
2021/03/23 04:18:44;;;;;;;11.75;2.85;;;;;;;;;;4102127;34;20073;-96
2021/03/23 04:21:35;;;;;;;9.77;3.10;;;;;;;;;;4097591;35;20092;-96
2021/03/23 04:24:11;;;;;;;11.73;3.33;;;;;;;;;;4086436;35;20084;-96
2021/03/23 04:26:55;;;;;;;14.20;2.95;;;;;;;;;;4110841;34;20106;-96
2021/03/23 04:29:38;;;;;;;8.75;2.95;;;;;;;;;;4093227;35;20054;-96
2021/03/23 04:32:59;;;;;;;12.93;3.10;;;;;;;;;;4089326;35;20066;-96
2021/03/23 04:35:43;;;;;;;14.98;3.55;;;;;;;;;;4109349;35;20070;-96
2021/03/23 04:38:34;;;;;;;15.13;3.60;;;;;;;;;;4091087;35;20043;-96
2021/03/23 04:41:21;;;;;;;7.40;2.45;;;;;;;;;;4097277;35;20129;-96
2021/03/23 04:44:43;;;;;;;;;;;;;;;;;;;;;
2021/03/23 04:47:34;;;;;;;11.23;3.00;;;;;;;;;;4100402;34;20054;-96
2021/03/23 04:50:32;;;;;;;12.80;3.60;;;;;;;;;;4086476;35;20094;-95
2021/03/23 04:53:43;;;;;;;11.15;3.45;;;;;;;;;;4076754;35;20066;-96
2021/03/23 04:56:31;;;;;;;21.12;4.10;;;;;;;;;;4095600;35;20119;-96
2021/03/23 04:59:47;;;;;;;8.02;2.72;;;;;;;;;;4101085;35;20091;-96
2021/03/23 05:03:06;;;;;;;6.28;2.58;;;;;;;;;;4102953;35;20404;-96
2021/03/23 05:05:49;;;;;;;7.25;2.60;;;;;;;;;;4098699;35;20062;-96
2021/03/23 05:08:30;;;;;;;11.60;3.00;;;;;;;;;;4085695;35;20400;-96
2021/03/23 05:11:38;;;;;;;8.77;3.40;;;;;;;;;;4101760;35;20072;-96
2021/03/23 05:14:38;;;;;;;13.80;3.67;;;;;;;;;;4090387;35;20150;-96
2021/03/23 05:18:09;;;;;;;17.20;3.85;;;;;;;;;;4106053;35;20160;-95
2021/03/23 05:21:01;;;;;;;13.23;3.47;;;;;;;;;;4101976;34;20123;-96
2021/03/23 05:24:02;;;;;;;8.52;3.20;;;;;;;;;;4098930;35;20101;-96
2021/03/23 05:27:09;;;;;;;9.55;3.85;;;;;;;;;;4100787;35;20081;-96
2021/03/23 05:29:48;;;;;;;8.48;3.25;;;;;;;;;;4100515;35;20105;-96
2021/03/23 05:32:54;;;;;;;15.05;4.20;;;;;;;;;;4108631;35;20041;-96
2021/03/23 05:36:05;;;;;;;14.30;4.50;;;;;;;;;;4100258;35;20083;-96
2021/03/23 05:39:03;;;;;;;13.32;3.30;;;;;;;;;;4108854;35;20113;-96
2021/03/23 05:42:13;;;;;;;17.65;3.90;;;;;;;;;;4094820;35;20054;-96
2021/03/23 05:45:31;;;;;;;18.17;4.10;;;;;;;;;;4102156;35;20072;-96
2021/03/23 05:48:28;;;;;;;11.80;3.25;;;;;;;;;;4097536;35;20116;-96
2021/03/23 05:51:34;;;;;;;14.55;3.55;;;;;;;;;;4098766;35;20047;-96
2021/03/23 05:54:43;;;;;;;16.00;3.97;;;;;;;;;;4099218;35;20116;-96
2021/03/23 05:57:39;;;;;;;20.60;4.28;;;;;;;;;;4085519;35;20066;-96
2021/03/23 06:00:23;;;;;;;11.02;3.45;;;;;;;;;;4077516;35;20077;-96
2021/03/23 06:03:29;;;;;;;20.50;4.50;;;;;;;;;;4100971;35;20067;-96
2021/03/23 06:07:13;;;;;;;12.70;4.03;;;;;;;;;;4089919;35;20077;-96
2021/03/23 06:10:29;;;;;;;14.63;3.83;;;;;;;;;;4077712;35;20058;-96
2021/03/23 06:13:16;;;;;;;17.90;4.55;;;;;;;;;;4070215;35;20065;-96
2021/03/23 06:16:07;;;;;;;11.55;3.90;;;;;;;;;;4086986;35;20104;-96
2021/03/23 06:19:17;;;;;;;24.60;4.32;;;;;;;;;;4098403;35;20058;-96
2021/03/23 06:22:19;;;;;;;10.13;3.83;;;;;;;;;;4085376;35;20137;-96
2021/03/23 06:25:29;;;;;;;16.42;4.82;;;;;;;;;;4088803;35;20054;-96
2021/03/23 06:28:57;;;;;;;18.08;4.30;;;;;;;;;;4093512;35;20072;-96
2021/03/23 06:32:09;;;;;;;;;;;;;;;;;;;;;
2021/03/23 06:34:57;;;;;;;18.00;4.80;;;;;;;;;;4083896;35;20065;-96
2021/03/23 06:37:32;;;;;;;11.55;4.10;;;;;;;;;;4104068;35;20062;-96
2021/03/23 06:40:14;;;;;;;10.60;4.22;;;;;;;;;;4102854;35;20104;-96
2021/03/23 06:42:53;;;;;;;15.15;3.75;;;;;;;;;;4103504;34;20106;-96
2021/03/23 06:45:39;;;;;;;10.32;3.87;;;;;;;;;;4100662;34;20081;-96
2021/03/23 06:48:40;;;;;;;12.50;4.47;;;;;;;;;;4087917;35;20111;-96
2021/03/23 06:51:40;;;;;;;14.73;5.00;;;;;;;;;;4087600;35;20068;-96
2021/03/23 06:54:51;;;;;;;;;;;;;;;;;;;;;
2021/03/23 06:57:47;;;;;;;17.30;4.43;;;;;;;;;;4101431;35;20110;-96
2021/03/23 07:00:46;;;;;;;16.08;4.72;;;;;;;;;;4074900;35;20058;-96
2021/03/23 07:03:40;;;;;;;12.45;4.40;;;;;;;;;;4101831;34;20124;-96
2021/03/23 07:06:36;;;;;;;8.35;3.22;;;;;;;;;;4093266;35;20421;-96
2021/03/23 07:09:23;;;;;;;;;;;;;;;;;;;;;
2021/03/23 07:12:03;;;;;;;10.98;3.58;;;;;;;;;;4102860;34;20054;-96
2021/03/23 07:15:19;;;;;;;12.75;4.55;;;;;;;;;;4085893;35;20389;-96
2021/03/23 07:18:09;;;;;;;20.42;4.95;;;;;;;;;;4094024;35;20109;-96
2021/03/23 07:21:09;;;;;;;18.35;5.93;;;;;;;;;;4099570;35;20776;-95
2021/03/23 07:24:10;;;;;;;16.60;5.10;;;;;;;;;;4098057;35;20066;-96
2021/03/23 07:27:28;;;;;;;;;;;;;;;;;;;;;
2021/03/23 07:33:54;;;;;;;14.00;3.33;;;;;;;;;;4082149;34;20060;-96
2021/03/23 07:37:13;;;;;;;7.70;3.42;;;;;;;;;;4109947;34;20069;-96
2021/03/23 07:41:15;;;;;;;11.32;3.58;;;;;;;;;;4078075;34;20406;-96
2021/03/23 07:44:39;;;;;;;18.60;14.52;;;;;;;;;;4117749;29;20068;-95
2021/03/23 07:48:40;;;;;;;;;;;;;;;;;;;;;
2021/03/23 07:54:49;;;;;;;26.27;13.43;;;;;;;;;;4077350;29;20061;-96
2021/03/23 07:57:49;;;;;;;22.90;19.83;;;;;;;;;;4052779;35;20121;-95
2021/03/23 08:00:41;;;;;;;35.55;25.35;;;;;;;;;;4048374;35;20076;-94
2021/03/23 08:03:32;;;;;;;16.70;5.32;;;;;;;;;;4061922;35;20059;-96
2021/03/23 08:06:18;;;;;;;23.05;17.40;;;;;;;;;;4070941;35;20058;-96
2021/03/23 08:09:32;;;;;;;65.00;41.88;;;;;;;;;;4066045;35;20066;-95
2021/03/23 08:12:14;;;;;;;30.50;25.60;;;;;;;;;;4067334;35;20519;-95
2021/03/23 08:14:43;;;;;;;16.55;8.60;;;;;;;;;;4056762;35;20082;-96
2021/03/23 08:21:16;;;;;;;10.88;2.78;;;;;;;;;;4057711;35;20085;-96
2021/03/23 08:23:56;;;;;;;11.35;3.15;;;;;;;;;;4080994;35;20074;-95
2021/03/23 08:26:34;;;;;;;12.65;2.80;;;;;;;;;;4059833;35;20062;-96
2021/03/23 08:32:34;;;;;;;9.20;2.10;;;;;;;;;;4083018;35;20073;-96
2021/03/23 08:35:50;;;;;;;;;;;;;;;;;;;;;
2021/03/23 08:39:04;;;;;;;13.48;2.75;;;;;;;;;;4089927;35;20104;-96
2021/03/23 08:42:34;;;;;;;12.77;2.67;;;;;;;;;;4094945;35;20042;-96
2021/03/23 08:45:57;;;;;;;14.10;2.80;;;;;;;;;;4059748;35;20079;-96
2021/03/23 09:01:43;;;;;;;27.58;3.35;;;;;;;;;;4716148;29;20124;31
2021/03/23 09:04:12;;;;;;;11.40;2.95;;;;;;;;;;4056683;35;20109;-83
2021/03/23 09:06:48;;;;;;;13.35;2.80;;;;;;;;;;4057640;35;20075;-84
2021/03/23 09:09:17;;;;;;;13.20;2.85;;;;;;;;;;4051569;35;20066;-84
2021/03/23 09:11:47;;;;;;;9.10;2.40;;;;;;;;;;4059650;35;20080;-83
2021/03/23 09:14:18;;;;;;;7.60;2.25;;;;;;;;;;4064068;35;20062;-84
2021/03/23 09:16:48;;;;;;;10.05;2.50;;;;;;;;;;4069579;35;20118;-83
2021/03/23 09:19:33;;;;;;;15.10;2.92;;;;;;;;;;4065337;35;20067;-84
2021/03/23 09:22:01;;;;;;;15.18;2.92;;;;;;;;;;4058102;35;20062;-84
2021/03/23 09:24:32;;;;;;;13.85;2.95;;;;;;;;;;4071244;35;20112;-84
2021/03/23 09:27:02;;;;;;;15.07;2.80;;;;;;;;;;4072359;35;20059;-84
2021/03/23 09:29:35;;;;;;;11.73;2.62;;;;;;;;;;4068848;35;20146;-84
2021/03/23 09:32:05;;;;;;;14.87;3.25;;;;;;;;;;4064454;34;20188;-84
2021/03/23 09:34:52;;;;;;;14.50;3.22;;;;;;;;;;4102470;34;20073;-84
2021/03/23 09:37:37;;;;;;;14.48;3.15;;;;;;;;;;4101304;34;20066;-83
2021/03/23 09:40:18;;;;;;;14.95;3.25;;;;;;;;;;4108635;34;20088;-84
2021/03/23 09:42:51;;;;;;;11.93;3.00;;;;;;;;;;4103614;34;20100;-84
2021/03/23 09:45:37;;;;;;;18.48;3.62;;;;;;;;;;4101784;34;20188;-84
2021/03/23 09:48:25;;;;;;;17.77;3.78;;;;;;;;;;4103072;34;20527;-82
2021/03/23 09:50:54;;;;;;;13.93;2.97;;;;;;;;;;4100609;34;20410;-83
2021/03/23 09:53:22;;;;;;;11.07;3.30;;;;;;;;;;4095095;34;20143;-84
2021/03/23 09:55:50;;;;;;;14.27;3.20;;;;;;;;;;4102651;34;20168;-83
2021/03/23 09:58:26;;;;;;;17.25;4.20;;;;;;;;;;4099189;34;20125;-83
2021/03/23 10:00:54;;;;;;;11.27;3.25;;;;;;;;;;4101159;34;20453;-84
2021/03/23 10:03:34;;;;;;;16.05;3.30;;;;;;;;;;4102977;34;20874;-84
2021/03/23 10:06:13;;;;;;;11.93;3.00;;;;;;;;;;4092568;34;20196;-84
2021/03/23 10:08:56;;;;;;;13.70;3.17;;;;;;;;;;4097699;34;20157;-84
2021/03/23 10:11:26;;;;;;;11.98;2.78;;;;;;;;;;4102206;34;20101;-84
2021/03/23 10:14:01;;;;;;;15.48;3.30;;;;;;;;;;4102858;34;20125;-84
2021/03/23 10:16:31;;;;;;;18.27;3.83;;;;;;;;;;4102813;34;20069;-84
2021/03/23 10:19:22;;;;;;;19.75;4.07;;;;;;;;;;4103031;34;20868;-84
2021/03/23 10:22:08;;;;;;;22.70;3.47;;;;;;;;;;4096637;34;20399;-84
2021/03/23 10:24:39;;;;;;;22.58;4.45;;;;;;;;;;4097030;34;20118;-83
2021/03/23 10:27:25;;;;;;;44.08;17.75;;;;;;;;;;4099524;34;20127;-83
2021/03/23 10:29:57;;;;;;;25.48;4.37;;;;;;;;;;4096396;34;20319;-83
2021/03/23 10:32:37;;;;;;;27.55;4.10;;;;;;;;;;4094966;34;20193;-83
2021/03/23 10:35:10;;;;;;;30.92;4.07;;;;;;;;;;4094633;34;20447;-84
2021/03/23 10:37:37;;;;;;;30.40;3.83;;;;;;;;;;4100304;34;20089;-83
2021/03/23 10:40:25;;;;;;;24.67;3.90;;;;;;;;;;4096315;34;20147;-83
2021/03/23 10:42:54;;;;;;;28.77;4.40;;;;;;;;;;4078360;35;20153;-83
2021/03/23 10:45:25;;;;;;;25.73;4.05;;;;;;;;;;4089475;35;20121;-83
2021/03/23 10:48:19;;;;;;;21.45;3.65;;;;;;;;;;4097188;34;20104;-84
2021/03/23 10:51:08;;;;;;;22.92;3.60;;;;;;;;;;4099881;34;20489;-83
2021/03/23 10:53:36;;;;;;;26.77;4.10;;;;;;;;;;4101814;34;20084;-83
2021/03/23 10:56:20;;;;;;;21.80;3.87;;;;;;;;;;4098911;35;20134;-84
2021/03/23 10:59:06;;;;;;;25.95;3.75;;;;;;;;;;4100392;34;20066;-84
2021/03/23 11:01:35;;;;;;;19.60;4.03;;;;;;;;;;4096430;34;20053;-83
2021/03/23 11:04:14;;;;;;;19.87;4.15;;;;;;;;;;4093453;34;20105;-83
2021/03/23 11:06:42;;;;;;;52.13;5.32;;;;;;;;;;4096128;34;20101;-84
2021/03/23 11:09:15;;;;;;;26.58;4.15;;;;;;;;;;4093866;34;20427;-83
2021/03/23 11:11:59;;;;;;;21.20;3.60;;;;;;;;;;4098281;34;20069;-83
2021/03/23 11:14:27;;;;;;;26.75;5.65;;;;;;;;;;4109755;34;20085;-83
2021/03/23 11:16:59;;;;;;;34.85;4.45;;;;;;;;;;4093082;34;20136;-84
2021/03/23 11:19:32;;;;;;;25.33;5.18;;;;;;;;;;4095203;34;20209;-83
2021/03/23 11:22:05;;;;;;;31.73;4.62;;;;;;;;;;4099755;34;20181;-83
2021/03/23 11:24:33;;;;;;;24.17;3.87;;;;;;;;;;4091978;34;20133;-83
2021/03/23 11:27:01;;;;;;;29.75;4.60;;;;;;;;;;4088991;34;20102;-83
2021/03/23 11:29:29;;;;;;;28.70;3.87;;;;;;;;;;4103960;34;20049;-83
2021/03/23 11:31:58;;;;;;;33.85;4.35;;;;;;;;;;4100865;34;20455;-83
2021/03/23 11:34:26;;;;;;;31.90;4.60;;;;;;;;;;4098166;34;20058;-85
2021/03/23 11:36:54;;;;;;;29.08;4.15;;;;;;;;;;4096133;34;20479;-84
2021/03/23 11:39:28;;;;;;;21.77;4.40;;;;;;;;;;4100969;34;20069;-83
2021/03/23 11:42:08;;;;;;;37.17;4.95;;;;;;;;;;4102193;34;20049;-83
2021/03/23 11:44:38;;;;;;;32.92;4.95;;;;;;;;;;4101088;34;20455;-84
2021/03/23 11:47:17;;;;;;;25.00;4.07;;;;;;;;;;4092950;34;20065;-85
2021/03/23 11:50:05;;;;;;;30.45;3.83;;;;;;;;;;4104537;34;20386;-85
2021/03/23 11:52:33;;;;;;;26.42;4.03;;;;;;;;;;4096586;34;20159;-85
2021/03/23 11:55:21;;;;;;;31.83;5.20;;;;;;;;;;4103561;35;20065;-85
2021/03/23 11:57:49;;;;;;;31.17;4.50;;;;;;;;;;4098895;34;20109;-86
2021/03/23 12:00:22;;;;;;;29.10;4.37;;;;;;;;;;4099972;34;20160;-85
2021/03/23 12:02:51;;;;;;;26.42;3.85;;;;;;;;;;4099199;34;20054;-86
2021/03/23 12:05:19;;;;;;;26.20;4.10;;;;;;;;;;4099554;34;20062;-85
2021/03/23 12:08:11;;;;;;;25.25;3.92;;;;;;;;;;4102935;34;20100;-84
2021/03/23 12:10:46;;;;;;;25.80;3.90;;;;;;;;;;4103326;34;20423;-84
2021/03/23 12:13:45;;;;;;;27.55;4.10;;;;;;;;;;4100816;34;20614;-83
2021/03/23 12:16:18;;;;;;;26.08;4.22;;;;;;;;;;4097896;35;20058;-83
2021/03/23 12:18:49;;;;;;;36.10;5.10;;;;;;;;;;4100697;34;20099;-86
2021/03/23 12:21:17;;;;;;;33.50;5.18;;;;;;;;;;4103175;34;20140;-86
2021/03/23 12:23:46;;;;;;;24.83;4.45;;;;;;;;;;4104958;34;20058;-85
2021/03/23 12:26:14;;;;;;;30.58;4.22;;;;;;;;;;4102285;34;20058;-85
2021/03/23 12:28:43;;;;;;;29.17;4.53;;;;;;;;;;4108669;34;20481;-85
2021/03/23 12:31:18;;;;;;;29.48;4.20;;;;;;;;;;4105665;34;20100;-85
2021/03/23 12:33:52;;;;;;;32.15;5.43;;;;;;;;;;4101862;34;20540;-86
2021/03/23 12:36:21;;;;;;;29.30;4.40;;;;;;;;;;4106982;34;20477;-85
2021/03/23 12:38:51;;;;;;;39.75;6.60;;;;;;;;;;4101758;34;20161;-84
2021/03/23 12:41:27;;;;;;;33.10;5.32;;;;;;;;;;4099166;34;20101;-84
2021/03/23 12:43:56;;;;;;;41.30;7.10;;;;;;;;;;4097764;34;20111;-86
2021/03/23 12:46:28;;;;;;;62.25;7.78;;;;;;;;;;4097048;34;20066;-85
2021/03/23 12:49:04;;;;;;;45.15;6.20;;;;;;;;;;4111641;34;20532;-85
2021/03/23 12:51:50;;;;;;;47.00;6.82;;;;;;;;;;4103100;34;20104;-85
2021/03/23 12:54:28;;;;;;;47.78;6.03;;;;;;;;;;4098930;34;20066;-85
2021/03/23 12:56:56;;;;;;;33.92;4.85;;;;;;;;;;4096746;34;20058;-85
2021/03/23 12:59:29;;;;;;;45.28;7.72;;;;;;;;;;4098960;34;20124;-85
2021/03/23 13:01:58;;;;;;;43.58;6.40;;;;;;;;;;4100499;34;20113;-85
2021/03/23 13:04:27;;;;;;;53.03;7.30;;;;;;;;;;4101133;34;20398;-85
2021/03/23 13:07:22;;;;;;;35.15;6.10;;;;;;;;;;4101550;34;20514;-85
2021/03/23 13:10:27;;;;;;;37.50;6.75;;;;;;;;;;4095833;34;20128;-85
2021/03/23 13:12:57;;;;;;;46.20;7.15;;;;;;;;;;4097242;34;20390;-85
2021/03/23 13:15:26;;;;;;;45.65;7.25;;;;;;;;;;4100798;34;20437;-85
2021/03/23 13:17:55;;;;;;;55.90;7.93;;;;;;;;;;4105095;34;20141;-84
2021/03/23 13:20:25;;;;;;;54.20;7.62;;;;;;;;;;4101486;34;20070;-85
2021/03/23 13:22:59;;;;;;;50.45;7.90;;;;;;;;;;4100876;34;20058;-85
2021/03/23 13:25:33;;;;;;;42.33;7.20;;;;;;;;;;4101709;34;20077;-85
2021/03/23 13:28:25;;;;;;;56.85;8.90;;;;;;;;;;4101879;34;20144;-85
2021/03/23 13:30:53;;;;;;;46.55;7.47;;;;;;;;;;4079225;35;20504;-85
2021/03/23 13:33:21;;;;;;;54.20;8.57;;;;;;;;;;4096780;34;20129;-84
2021/03/23 13:35:53;;;;;;;81.93;10.23;;;;;;;;;;4102505;34;20045;-85
2021/03/23 13:38:22;;;;;;;62.70;8.57;;;;;;;;;;4102553;34;20058;-85
2021/03/23 13:40:50;;;;;;;55.40;8.95;;;;;;;;;;4104463;34;20065;-84
2021/03/23 13:43:20;;;;;;;68.95;9.32;;;;;;;;;;4101607;34;20101;-84
2021/03/23 13:45:54;;;;;;;63.90;9.85;;;;;;;;;;4103810;34;20099;-84
2021/03/23 13:48:36;;;;;;;68.50;9.40;;;;;;;;;;4103568;34;20169;-85
2021/03/23 13:51:07;;;;;;;48.40;8.15;;;;;;;;;;4101525;35;20578;-85
2021/03/23 13:53:39;;;;;;;83.68;10.93;;;;;;;;;;4087182;34;20126;-85
2021/03/23 13:56:08;;;;;;;81.47;10.85;;;;;;;;;;4102536;34;20121;-85
2021/03/23 13:58:36;;;;;;;87.90;10.80;;;;;;;;;;4098514;34;20084;-84
2021/03/23 14:01:05;;;;;;;61.35;9.10;;;;;;;;;;4100362;34;20068;-85
2021/03/23 14:03:34;;;;;;;67.05;9.80;;;;;;;;;;4102718;34;20062;-85
2021/03/23 14:06:02;;;;;;;61.17;9.07;;;;;;;;;;4102488;34;20520;-85
2021/03/23 14:08:36;;;;;;;172.25;16.73;;;;;;;;;;4101387;34;20066;-85
2021/03/23 14:11:05;;;;;;;86.57;11.80;;;;;;;;;;4097868;34;20466;-84
2021/03/23 14:13:33;;;;;;;72.55;10.88;;;;;;;;;;4101580;34;20097;-85
2021/03/23 14:16:02;;;;;;;101.43;13.55;;;;;;;;;;4103584;34;20124;-85
2021/03/23 14:18:31;;;;;;;67.82;10.80;;;;;;;;;;4098848;34;20076;-84
2021/03/23 14:21:00;;;;;;;74.97;11.98;;;;;;;;;;4099946;34;20054;-85
2021/03/23 14:23:32;;;;;;;77.55;10.93;;;;;;;;;;4099575;34;20066;-85
2021/03/23 14:26:00;;;;;;;130.00;14.75;;;;;;;;;;4106387;34;20124;-84
2021/03/23 14:28:33;;;;;;;74.97;11.35;;;;;;;;;;4104158;34;20057;-85
2021/03/23 14:31:03;;;;;;;79.35;10.38;;;;;;;;;;4103019;34;20117;-84
2021/03/23 14:33:31;;;;;;;73.53;11.63;;;;;;;;;;4102851;34;20430;-85
2021/03/23 14:36:00;;;;;;;93.35;12.02;;;;;;;;;;4102595;34;20085;-85
2021/03/23 14:38:38;;;;;;;81.63;11.15;;;;;;;;;;4101878;34;20100;-85
2021/03/23 14:41:27;;;;;;;87.88;11.45;;;;;;;;;;4101118;34;20069;-85
2021/03/23 14:43:55;;;;;;;87.32;12.30;;;;;;;;;;4100107;34;20577;-85
2021/03/23 14:46:30;;;;;;;95.75;12.20;;;;;;;;;;4101572;34;20453;-86
2021/03/23 14:48:59;;;;;;;82.32;12.15;;;;;;;;;;4096292;34;20141;-84
2021/03/23 14:51:37;;;;;;;81.57;11.18;;;;;;;;;;4095484;34;20114;-84
2021/03/23 14:54:07;;;;;;;76.85;11.18;;;;;;;;;;4106487;34;20458;-84
2021/03/23 14:56:38;;;;;;;78.90;11.15;;;;;;;;;;4099670;34;20058;-85
2021/03/23 14:59:08;;;;;;;88.57;12.40;;;;;;;;;;4095587;34;20176;-85
2021/03/23 15:01:37;;;;;;;93.25;12.07;;;;;;;;;;4094738;34;20094;-86
2021/03/23 15:04:08;;;;;;;86.93;10.50;;;;;;;;;;4098694;34;20683;-85
2021/03/23 15:06:36;;;;;;;90.97;12.18;;;;;;;;;;4099109;34;20096;-85
2021/03/23 15:09:16;;;;;;;82.62;10.20;;;;;;;;;;4100885;34;20088;-85
2021/03/23 15:11:45;;;;;;;89.87;12.57;;;;;;;;;;4097867;34;20070;-85
2021/03/23 15:14:15;;;;;;;85.82;13.10;;;;;;;;;;4102531;34;20496;-85
2021/03/23 15:16:44;;;;;;;70.18;10.00;;;;;;;;;;4106776;34;20111;-84
2021/03/23 15:19:13;;;;;;;62.10;10.32;;;;;;;;;;4106650;34;20073;-86
2021/03/23 15:21:42;;;;;;;83.60;10.48;;;;;;;;;;4103240;34;20062;-84
2021/03/23 15:24:20;;;;;;;94.78;12.43;;;;;;;;;;4102632;34;20046;-84
2021/03/23 15:26:49;;;;;;;96.07;12.95;;;;;;;;;;4103522;35;20080;-85
2021/03/23 15:29:25;;;;;;;82.90;12.18;;;;;;;;;;4104362;34;20053;-85
2021/03/23 15:31:54;;;;;;;105.85;13.02;;;;;;;;;;4102406;34;20069;-86
2021/03/23 15:34:22;;;;;;;98.65;13.10;;;;;;;;;;4100756;34;20065;-85
2021/03/23 15:36:52;;;;;;;81.95;11.60;;;;;;;;;;4097753;34;20053;-85
2021/03/23 15:39:22;;;;;;;82.07;12.32;;;;;;;;;;4098714;34;20099;-85
2021/03/23 15:41:55;;;;;;;86.95;13.48;;;;;;;;;;4097603;34;20564;-85
2021/03/23 15:44:24;;;;;;;101.47;13.05;;;;;;;;;;4102023;34;20113;-85
2021/03/23 15:46:52;;;;;;;84.22;11.38;;;;;;;;;;4098444;34;20128;-85
2021/03/23 15:49:20;;;;;;;136.10;17.15;;;;;;;;;;4103132;34;20266;-84
2021/03/23 15:51:49;;;;;;;99.62;13.07;;;;;;;;;;4104672;34;20602;-84
2021/03/23 15:54:18;;;;;;;130.77;15.77;;;;;;;;;;4099433;34;20054;-85
2021/03/23 15:56:46;;;;;;;131.18;15.48;;;;;;;;;;4097268;34;20477;-85
2021/03/23 15:59:19;;;;;;;142.87;16.27;;;;;;;;;;4092525;34;20101;-85
2021/03/23 16:01:48;;;;;;;140.70;16.70;;;;;;;;;;4095328;35;20077;-85
2021/03/23 16:04:16;;;;;;;137.07;16.80;;;;;;;;;;4100022;34;20160;-85
2021/03/23 16:06:49;;;;;;;186.65;18.92;;;;;;;;;;4100579;34;20072;-85
2021/03/23 16:09:26;;;;;;;171.02;19.45;;;;;;;;;;4099341;34;20085;-84
2021/03/23 16:11:57;;;;;;;191.23;21.10;;;;;;;;;;4101621;34;20128;-83
2021/03/23 16:14:26;;;;;;;167.85;17.52;;;;;;;;;;4102393;34;21061;-84
2021/03/23 16:16:54;;;;;;;114.82;14.98;;;;;;;;;;4100828;34;20431;-85
2021/03/23 16:19:23;;;;;;;124.03;15.90;;;;;;;;;;4100558;34;20057;-84
2021/03/23 16:21:52;;;;;;;152.48;17.87;;;;;;;;;;4100624;34;20073;-85
2021/03/23 16:24:22;;;;;;;131.05;15.93;;;;;;;;;;4092401;34;20452;-85
2021/03/23 16:26:50;;;;;;;155.63;17.05;;;;;;;;;;4100608;34;20063;-85
2021/03/23 16:29:18;;;;;;;168.57;17.73;;;;;;;;;;4104633;34;20061;-85
2021/03/23 16:31:48;;;;;;;181.05;17.10;;;;;;;;;;4097385;34;20193;-85
2021/03/23 16:34:19;;;;;;;109.55;13.68;;;;;;;;;;4102208;34;20053;-84